createdAt,value
2019-06-20T00:00:45.617Z,99794.52
2019-06-20T00:03:14.556Z,99803.11
2019-06-20T00:05:43.525Z,99817.14
2019-06-20T00:08:12.957Z,99828.84
2019-06-20T00:10:42.354Z,99840.03
2019-06-20T00:13:11.335Z,99848.36
2019-06-20T00:15:41.005Z,99852.31
2019-06-20T00:18:09.963Z,99859.59
2019-06-20T00:20:38.865Z,99859.30
2019-06-20T00:23:07.868Z,99868.61
2019-06-20T00:25:36.785Z,99871.87
2019-06-20T00:28:05.727Z,99858.36
2019-06-20T00:30:34.715Z,99847.06
2019-06-20T00:33:03.698Z,99840.75
2019-06-20T00:35:32.708Z,99852.12
2019-06-20T00:38:01.647Z,99861.52
2019-06-20T00:40:30.612Z,99872.14
2019-06-20T00:42:59.499Z,99866.73
2019-06-20T00:45:28.462Z,99850.39
2019-06-20T00:47:57.233Z,99844.20
2019-06-20T00:50:26.115Z,99839.66
2019-06-20T00:52:54.993Z,99837.82
2019-06-20T00:55:23.950Z,99832.84
2019-06-20T00:57:52.775Z,99828.83
2019-06-20T01:00:21.800Z,99827.53
2019-06-20T01:02:50.661Z,99830.74
2019-06-20T01:05:19.661Z,99831.36
2019-06-20T01:07:48.550Z,99824.58
2019-06-20T01:10:17.694Z,99829.28
2019-06-20T01:12:46.503Z,99822.56
2019-06-20T01:15:15.516Z,99821.78
2019-06-20T01:17:44.519Z,99820.68
2019-06-20T01:20:14.195Z,99814.67
2019-06-20T01:22:43.080Z,99817.41
2019-06-20T01:25:12.663Z,99817.69
2019-06-20T01:27:41.533Z,99818.50
2019-06-20T01:30:11.254Z,99814.21
2019-06-20T01:32:40.175Z,99820.50
2019-06-20T01:35:09.708Z,99816.94
2019-06-20T01:37:38.695Z,99825.98
2019-06-20T01:40:08.148Z,99831.19
2019-06-20T01:42:37.096Z,99838.53
2019-06-20T01:45:07.417Z,99829.30
2019-06-20T01:47:36.338Z,99831.77
2019-06-20T01:50:05.812Z,99838.93
2019-06-20T01:52:34.796Z,99841.67
2019-06-20T01:55:03.808Z,99837.34
2019-06-20T01:57:32.664Z,99838.16
2019-06-20T02:00:01.672Z,99837.32
2019-06-20T02:02:30.775Z,99847.94
2019-06-20T02:04:59.719Z,99849.31
2019-06-20T02:07:28.724Z,99856.13
2019-06-20T02:09:57.531Z,99858.03
2019-06-20T02:12:26.431Z,99859.17
2019-06-20T02:14:55.231Z,99857.56
2019-06-20T02:17:24.199Z,99854.32
2019-06-20T02:19:53.310Z,99854.59
2019-06-20T02:22:22.194Z,99855.16
2019-06-20T02:24:51.129Z,99850.83
2019-06-20T02:27:21.164Z,99852.95
2019-06-20T02:29:50.197Z,99856.78
2019-06-20T02:32:19.083Z,99862.50
2019-06-20T02:34:48.027Z,99861.45
2019-06-20T02:37:16.823Z,99863.08
2019-06-20T02:39:46.508Z,99866.33
2019-06-20T02:42:15.489Z,99873.42
2019-06-20T02:44:44.865Z,99881.04
2019-06-20T02:47:13.878Z,99876.42
2019-06-20T02:49:42.683Z,99875.61
2019-06-20T02:52:11.879Z,99877.80
2019-06-20T02:54:40.740Z,99882.18
2019-06-20T02:57:09.659Z,99883.24
2019-06-20T02:59:38.641Z,99881.64
2019-06-20T03:02:07.637Z,99881.10
2019-06-20T03:04:36.541Z,99885.98
2019-06-20T03:07:05.545Z,99890.35
2019-06-20T03:09:34.403Z,99904.22
2019-06-20T03:12:03.363Z,99913.17
2019-06-20T03:14:44.669Z,99915.90
2019-06-20T03:17:02.706Z,99923.50
2019-06-20T03:19:31.504Z,99926.22
2019-06-20T03:22:00.359Z,99925.13
2019-06-20T03:24:29.396Z,99925.94
2019-06-20T03:26:58.299Z,99936.56
2019-06-20T03:29:27.145Z,99932.19
2019-06-20T03:31:56.041Z,99930.84
2019-06-20T03:34:24.865Z,99939.80
2019-06-20T03:36:53.705Z,99938.41
2019-06-20T03:39:22.553Z,99940.83
2019-06-20T03:41:51.579Z,99939.20
2019-06-20T03:44:20.454Z,99939.19
2019-06-20T03:46:49.469Z,99938.94
2019-06-20T03:49:18.403Z,99951.44
2019-06-20T03:51:47.303Z,99954.14
2019-06-20T03:54:16.183Z,99960.12
2019-06-20T03:56:45.114Z,99956.56
2019-06-20T03:59:14.019Z,99956.56
2019-06-20T04:01:42.888Z,99953.55
2019-06-20T04:04:11.859Z,99961.44
2019-06-20T04:06:40.815Z,99966.08
2019-06-20T04:09:09.700Z,99962.00
2019-06-20T04:11:38.654Z,99965.58
2019-06-20T04:14:07.608Z,99968.54
2019-06-20T04:16:36.443Z,99969.66
2019-06-20T04:19:05.562Z,99979.23
2019-06-20T04:21:34.428Z,99979.23
2019-06-20T04:24:03.328Z,99983.84
2019-06-20T04:26:32.290Z,99992.05
2019-06-20T04:29:01.191Z,99995.85
2019-06-20T04:31:30.138Z,100001.57
2019-06-20T04:33:59.007Z,100003.77
2019-06-20T04:36:27.842Z,100000.26
2019-06-20T04:38:56.793Z,100004.62
2019-06-20T04:41:25.678Z,100005.14
2019-06-20T04:43:54.502Z,100005.12
2019-06-20T04:46:28.723Z,100003.18
2019-06-20T04:48:57.527Z,99998.27
2019-06-20T04:51:26.463Z,100005.27
2019-06-20T04:53:55.339Z,99999.72
2019-06-20T04:56:24.360Z,100001.80
2019-06-20T04:58:53.223Z,100008.31
2019-06-20T05:01:22.129Z,100003.91
2019-06-20T05:03:50.972Z,100007.14
2019-06-20T05:06:19.886Z,100007.52
2019-06-20T05:08:48.678Z,100009.08
2019-06-20T05:11:17.551Z,100004.23
2019-06-20T05:13:46.514Z,100005.80
2019-06-20T05:16:15.401Z,100005.77
2019-06-20T05:18:44.336Z,100009.52
2019-06-20T05:21:13.061Z,100009.52
2019-06-20T05:23:42.018Z,100009.49
2019-06-20T05:26:11.034Z,100008.27
2019-06-20T05:28:40.007Z,100012.12
2019-06-20T05:31:08.929Z,100018.79
2019-06-20T05:33:37.722Z,100019.70
2019-06-20T05:36:06.632Z,100019.16
2019-06-20T05:38:35.398Z,100020.78
2019-06-20T05:41:04.711Z,100022.93
2019-06-20T05:43:33.532Z,100023.63
2019-06-20T05:46:09.662Z,100027.41
2019-06-20T05:48:33.147Z,100027.23
2019-06-20T05:51:01.976Z,100039.30
2019-06-20T05:53:30.941Z,100033.58
2019-06-20T05:55:59.828Z,100027.27
2019-06-20T05:58:28.830Z,100037.13
2019-06-20T06:00:57.792Z,100029.54
2019-06-20T06:03:27.299Z,100031.98
2019-06-20T06:05:56.206Z,100027.72
2019-06-20T06:08:25.132Z,100021.80
2019-06-20T06:10:54.028Z,100022.48
2019-06-20T06:13:22.976Z,100021.52
2019-06-20T06:15:51.788Z,100015.97
2019-06-20T06:18:20.649Z,100019.40
2019-06-20T06:20:49.593Z,100018.53
2019-06-20T06:23:18.439Z,100025.06
2019-06-20T06:25:47.324Z,100022.69
2019-06-20T06:28:16.378Z,100026.35
2019-06-20T06:30:45.265Z,100013.78
2019-06-20T06:33:14.409Z,100023.48
2019-06-20T06:35:43.353Z,100017.53
2019-06-20T06:38:12.245Z,100015.95
2019-06-20T06:40:41.059Z,100014.59
2019-06-20T06:43:10.063Z,100018.83
2019-06-20T06:45:39.108Z,100025.39
2019-06-20T06:48:08.044Z,100032.23
2019-06-20T06:50:37.052Z,100021.86
2019-06-20T06:53:06.084Z,100022.81
2019-06-20T06:55:34.950Z,100025.66
2019-06-20T06:58:03.961Z,100031.61
2019-06-20T07:00:32.893Z,100036.06
2019-06-20T07:03:01.915Z,100034.06
2019-06-20T07:05:30.782Z,100033.87
2019-06-20T07:07:59.659Z,100038.72
2019-06-20T07:10:28.805Z,100049.09
2019-06-20T07:12:57.697Z,100052.97
2019-06-20T07:15:26.810Z,100057.97
2019-06-20T07:17:55.845Z,100057.47
2019-06-20T07:20:24.813Z,100063.16
2019-06-20T07:22:54.351Z,100053.98
2019-06-20T07:25:23.346Z,100049.85
2019-06-20T07:27:52.284Z,100053.86
2019-06-20T07:30:21.540Z,100054.75
2019-06-20T07:32:50.428Z,100055.25
2019-06-20T07:35:19.671Z,100055.50
2019-06-20T07:37:48.524Z,100053.70
2019-06-20T07:40:18.276Z,100051.78
2019-06-20T07:42:47.226Z,100050.63
2019-06-20T07:45:16.845Z,100058.24
2019-06-20T07:47:45.712Z,100050.45
2019-06-20T07:50:14.977Z,100045.95
2019-06-20T07:52:57.773Z,100042.30
2019-06-20T07:55:14.659Z,100051.80
2019-06-20T07:57:43.604Z,100056.96
2019-06-20T08:00:12.915Z,100066.30
2019-06-20T08:02:42.014Z,100061.64
2019-06-20T08:05:11.579Z,100065.50
2019-06-20T08:07:40.583Z,100065.88
2019-06-20T08:10:11.404Z,100072.59
2019-06-20T08:12:40.488Z,100076.85
2019-06-20T08:15:15.094Z,100075.13
2019-06-20T08:17:40.871Z,100071.41
2019-06-20T08:20:10.590Z,100022.07
2019-06-20T08:22:39.598Z,100073.15
2019-06-20T08:25:10.735Z,100075.83
2019-06-20T08:27:52.438Z,100079.86
2019-06-20T08:30:24.235Z,100073.71
2019-06-20T08:32:53.388Z,100073.58
2019-06-20T08:35:23.891Z,100066.93
2019-06-20T08:37:53.713Z,100075.70
2019-06-20T08:40:23.373Z,100066.56
2019-06-20T08:42:52.296Z,100070.97
2019-06-20T08:45:21.954Z,100069.71
2019-06-20T08:47:50.924Z,100072.28
2019-06-20T08:50:20.128Z,100072.97
2019-06-20T08:52:48.947Z,100069.05
2019-06-20T08:55:18.281Z,100065.52
2019-06-20T08:57:47.292Z,100064.68
2019-06-20T09:00:16.672Z,100062.48
2019-06-20T09:02:45.548Z,100061.89
2019-06-20T09:05:15.447Z,100069.65
2019-06-20T09:07:44.589Z,100065.09
2019-06-20T09:10:14.568Z,100062.35
2019-06-20T09:12:43.432Z,100065.64
2019-06-20T09:15:12.877Z,100074.23
2019-06-20T09:17:41.819Z,100068.42
2019-06-20T09:20:13.543Z,100062.53
2019-06-20T09:22:42.507Z,100065.47
2019-06-20T09:25:12.989Z,100062.89
2019-06-20T09:27:42.180Z,100072.39
2019-06-20T09:30:11.965Z,100070.09
2019-06-20T09:32:41.047Z,100070.34
2019-06-20T09:35:10.764Z,100067.42
2019-06-20T09:37:39.861Z,100062.88
2019-06-20T09:40:09.554Z,100064.59
2019-06-20T09:42:38.739Z,100061.20
2019-06-20T09:45:08.704Z,100066.11
2019-06-20T09:47:37.676Z,100066.12
2019-06-20T09:50:07.798Z,100072.34
2019-06-20T09:52:36.710Z,100070.45
2019-06-20T09:55:06.367Z,100070.92
2019-06-20T09:57:36.079Z,100071.22
2019-06-20T10:00:10.393Z,100077.59
2019-06-20T10:02:36.941Z,100066.61
2019-06-20T10:05:08.102Z,100066.77
2019-06-20T10:07:37.178Z,100070.98
2019-06-20T10:10:07.221Z,100068.73
2019-06-20T10:12:36.538Z,100069.56
2019-06-20T10:15:06.837Z,100072.92
2019-06-20T10:17:35.774Z,100072.80
2019-06-20T10:20:05.167Z,100073.12
2019-06-20T10:22:34.153Z,100075.94
2019-06-20T10:25:03.122Z,100075.58
2019-06-20T10:27:32.035Z,100072.67
2019-06-20T10:30:13.816Z,100082.42
2019-06-20T10:32:31.645Z,100071.57
2019-06-20T10:35:00.554Z,100076.47
2019-06-20T10:37:29.591Z,100077.56
2019-06-20T10:39:58.724Z,100079.59
2019-06-20T10:42:27.855Z,100068.73
2019-06-20T10:44:56.875Z,100065.52
2019-06-20T10:47:32.603Z,100062.23
2019-06-20T10:49:56.380Z,100066.77
2019-06-20T10:52:25.279Z,100059.73
2019-06-20T10:54:54.151Z,100063.91
2019-06-20T10:57:23.039Z,100053.58
2019-06-20T10:59:52.000Z,100048.17
2019-06-20T11:02:20.926Z,100047.94
2019-06-20T11:04:49.902Z,100044.31
2019-06-20T11:07:18.985Z,100054.43
2019-06-20T11:09:49.372Z,100051.73
2019-06-20T11:12:18.477Z,100047.98
2019-06-20T11:14:48.443Z,100059.50
2019-06-20T11:17:17.510Z,100057.64
2019-06-20T11:19:47.976Z,100060.14
2019-06-20T11:22:16.963Z,100054.75
2019-06-20T11:24:47.409Z,100055.55
2019-06-20T11:27:16.254Z,100058.03
2019-06-20T11:29:46.540Z,100053.80
2019-06-20T11:32:15.580Z,100052.66
2019-06-20T11:34:44.952Z,100052.73
2019-06-20T11:37:14.070Z,100049.88
2019-06-20T11:39:43.256Z,100044.84
2019-06-20T11:42:12.185Z,100046.22
2019-06-20T11:44:41.102Z,100059.48
2019-06-20T11:47:10.140Z,100050.61
2019-06-20T11:49:40.183Z,100054.44
2019-06-20T11:52:09.426Z,100049.23
2019-06-20T11:54:38.376Z,100050.98
2019-06-20T11:57:07.417Z,100048.91
2019-06-20T11:59:36.328Z,100047.03
2019-06-20T12:02:05.558Z,100038.96
2019-06-20T12:04:34.321Z,100043.97
2019-06-20T12:07:03.261Z,100041.06
2019-06-20T12:09:32.262Z,100050.14
2019-06-20T12:12:01.151Z,100044.58
2019-06-20T12:14:30.167Z,100041.75
2019-06-20T12:17:01.062Z,100034.09
2019-06-20T12:19:31.889Z,100036.18
2019-06-20T12:22:00.755Z,100033.43
2019-06-20T12:24:30.899Z,100037.51
2019-06-20T12:26:59.866Z,100032.75
2019-06-20T12:29:28.865Z,100022.38
2019-06-20T12:31:59.162Z,100022.02
2019-06-20T12:34:30.538Z,100026.06
2019-06-20T12:36:59.119Z,100019.83
2019-06-20T12:39:28.129Z,100015.16
2019-06-20T12:42:02.804Z,100018.73
2019-06-20T12:44:31.657Z,100019.94
2019-06-20T12:47:00.528Z,100027.64
2019-06-20T12:49:29.405Z,100014.98
2019-06-20T12:51:58.277Z,100003.75
2019-06-20T12:54:30.097Z,100009.02
2019-06-20T12:56:57.737Z,100021.11
2019-06-20T12:59:38.091Z,100015.13
2019-06-20T13:02:08.222Z,100012.75
2019-06-20T13:04:38.796Z,100006.36
2019-06-20T13:07:11.212Z,99997.56
2019-06-20T13:09:41.103Z,100002.58
2019-06-20T13:12:13.740Z,100007.20
2019-06-20T13:14:50.811Z,100002.98
2019-06-20T13:17:19.933Z,100003.33
2019-06-20T13:19:48.796Z,100004.17
2019-06-20T13:22:17.722Z,99997.64
2019-06-20T13:24:47.182Z,99997.34
2019-06-20T13:27:16.262Z,99997.02
2019-06-20T13:29:45.316Z,100001.23
2019-06-20T13:32:14.355Z,99999.98
2019-06-20T13:34:44.576Z,99982.30
2019-06-20T13:37:15.545Z,99988.38
2019-06-20T13:39:45.725Z,99990.52
2019-06-20T13:42:14.730Z,99987.33
2019-06-20T13:44:44.127Z,99979.63
2019-06-20T13:47:13.155Z,99981.66
2019-06-20T13:49:43.186Z,99973.41
2019-06-20T13:52:12.126Z,99977.53
2019-06-20T13:54:42.801Z,99962.66
2019-06-20T13:57:11.650Z,99968.91
2019-06-20T13:59:41.606Z,99977.48
2019-06-20T14:02:10.652Z,99982.81
2019-06-20T14:04:41.086Z,99987.80
2019-06-20T14:07:10.095Z,99986.98
2019-06-20T14:09:38.905Z,99983.55
2019-06-20T14:12:07.844Z,99973.84
2019-06-20T14:14:36.765Z,99980.57
2019-06-20T14:17:06.009Z,99975.53
2019-06-20T14:19:34.894Z,99979.09
2019-06-20T14:22:03.911Z,99979.58
2019-06-20T14:24:32.870Z,99990.59
2019-06-20T14:27:02.381Z,100002.38
2019-06-20T14:29:31.281Z,100006.23
2019-06-20T14:32:00.261Z,100023.62
2019-06-20T14:34:29.195Z,100023.62
2019-06-20T14:36:58.123Z,100031.34
2019-06-20T14:39:27.021Z,100062.69
2019-06-20T14:41:56.047Z,100051.97
2019-06-20T14:44:25.032Z,100053.91
2019-06-20T14:46:54.443Z,100040.86
2019-06-20T14:49:23.280Z,100055.27
2019-06-20T14:51:52.490Z,100056.35
2019-06-20T14:54:21.583Z,100040.16
2019-06-20T14:56:51.692Z,100052.39
2019-06-20T14:59:20.933Z,100048.81
2019-06-20T15:01:50.626Z,100041.14
2019-06-20T15:04:19.642Z,100026.70
2019-06-20T15:06:48.628Z,100033.35
2019-06-20T15:09:17.537Z,100031.84
2019-06-20T15:11:47.836Z,100039.73
2019-06-20T15:14:17.044Z,100028.20
2019-06-20T15:16:46.793Z,100046.52
2019-06-20T15:19:16.584Z,100042.48
2019-06-20T15:21:46.874Z,100042.62
2019-06-20T15:24:16.262Z,100042.01
2019-06-20T15:26:47.135Z,100045.95
2019-06-20T15:29:15.851Z,100047.23
2019-06-20T15:31:45.911Z,100047.63
2019-06-20T15:34:15.617Z,100048.88
2019-06-20T15:36:44.632Z,100047.77
2019-06-20T15:39:13.617Z,100049.19
2019-06-20T15:41:42.508Z,100043.67
2019-06-20T15:44:11.393Z,100043.34
2019-06-20T15:46:40.367Z,100036.50
2019-06-20T15:49:16.033Z,100035.11
2019-06-20T15:51:40.058Z,100045.81
2019-06-20T15:54:08.974Z,100049.98
2019-06-20T15:56:37.826Z,100046.23
2019-06-20T15:59:06.746Z,100053.03
2019-06-20T16:01:35.729Z,100049.53
2019-06-20T16:04:04.893Z,100050.27
2019-06-20T16:06:33.863Z,100047.19
2019-06-20T16:09:02.984Z,100046.92
2019-06-20T16:11:34.705Z,100045.05
2019-06-20T16:14:03.644Z,100050.23
2019-06-20T16:16:32.613Z,100049.36
2019-06-20T16:19:01.568Z,100046.23
2019-06-20T16:21:30.452Z,100043.62
2019-06-20T16:23:59.366Z,100048.72
2019-06-20T16:26:28.365Z,100054.88
2019-06-20T16:28:57.334Z,100050.11
2019-06-20T16:31:27.344Z,100057.03
2019-06-20T16:33:56.549Z,100062.36
2019-06-20T16:36:25.555Z,100055.66
2019-06-20T16:38:54.522Z,100052.99
2019-06-20T16:41:23.422Z,100058.37
2019-06-20T16:43:52.595Z,100063.89
2019-06-20T16:46:21.508Z,100059.73
2019-06-20T16:48:50.440Z,100055.23
2019-06-20T16:51:19.474Z,100051.70
2019-06-20T16:53:48.206Z,100051.38
2019-06-20T16:56:17.128Z,100050.83
2019-06-20T16:58:46.005Z,100058.70
2019-06-20T17:01:15.039Z,100066.25
2019-06-20T17:03:44.354Z,100069.73
2019-06-20T17:06:13.643Z,100074.59
2019-06-20T17:08:42.552Z,100078.47
2019-06-20T17:11:11.533Z,100086.48
2019-06-20T17:13:40.380Z,100090.90
2019-06-20T17:16:09.321Z,100102.77
2019-06-20T17:18:38.095Z,100097.60
2019-06-20T17:21:07.060Z,100100.86
2019-06-20T17:23:35.967Z,100093.52
2019-06-20T17:26:06.639Z,100093.59
2019-06-20T17:28:35.615Z,100088.17
2019-06-20T17:31:04.740Z,100102.91
2019-06-20T17:33:33.603Z,100113.34
2019-06-20T17:36:17.354Z,100112.08
2019-06-20T17:38:33.240Z,100109.39
2019-06-20T17:41:02.326Z,100108.41
2019-06-20T17:43:31.408Z,100118.54
2019-06-20T17:46:00.421Z,100111.92
2019-06-20T17:48:29.503Z,100126.15
2019-06-20T17:50:58.740Z,100124.55
2019-06-20T17:53:27.717Z,100125.39
2019-06-20T17:55:56.674Z,100132.17
2019-06-20T17:58:25.732Z,100138.44
2019-06-20T18:00:54.640Z,100148.92
2019-06-20T18:03:24.056Z,100151.33
2019-06-20T18:05:52.881Z,100145.13
2019-06-20T18:08:21.929Z,100149.65
2019-06-20T18:10:50.969Z,100149.05
2019-06-20T18:13:19.883Z,100162.47
2019-06-20T18:15:48.842Z,100161.28
2019-06-20T18:18:17.841Z,100160.17
2019-06-20T18:20:46.823Z,100166.50
2019-06-20T18:23:15.682Z,100175.56
2019-06-20T18:25:44.588Z,100180.44
2019-06-20T18:28:13.576Z,100178.85
2019-06-20T18:30:43.931Z,100173.29
2019-06-20T18:33:13.270Z,100192.91
2019-06-20T18:35:42.251Z,100190.21
2019-06-20T18:38:11.364Z,100187.30
2019-06-20T18:40:40.267Z,100192.64
2019-06-20T18:43:09.238Z,100198.89
2019-06-20T18:45:38.127Z,100207.34
2019-06-20T18:48:07.101Z,100209.69
2019-06-20T18:50:36.046Z,100216.44
2019-06-20T18:53:05.082Z,100218.96
2019-06-20T18:55:34.038Z,100217.28
2019-06-20T18:58:02.920Z,100217.66
2019-06-20T19:00:34.862Z,100232.19
2019-06-20T19:03:02.822Z,100241.25
2019-06-20T19:05:32.019Z,100241.86
2019-06-20T19:08:00.844Z,100260.12
2019-06-20T19:10:33.453Z,100254.45
2019-06-20T19:13:00.571Z,100250.89
2019-06-20T19:15:29.663Z,100247.61
2019-06-20T19:17:58.675Z,100260.16
2019-06-20T19:20:27.650Z,100258.22
2019-06-20T19:22:56.943Z,100266.67
2019-06-20T19:25:25.924Z,100264.22
2019-06-20T19:27:54.804Z,100267.75
2019-06-20T19:30:32.321Z,100271.80
2019-06-20T19:33:01.088Z,100280.50
2019-06-20T19:35:30.052Z,100273.95
2019-06-20T19:37:59.058Z,100270.95
2019-06-20T19:40:31.208Z,100279.38
2019-06-20T19:43:00.137Z,100294.81
2019-06-20T19:45:29.200Z,100295.88
2019-06-20T19:47:58.221Z,100289.62
2019-06-20T19:50:27.204Z,100301.05
2019-06-20T19:52:56.201Z,100297.21
2019-06-20T19:55:25.313Z,100306.50
2019-06-20T19:57:54.410Z,100307.04
2019-06-20T20:00:24.776Z,100309.70
2019-06-20T20:02:53.922Z,100316.23
2019-06-20T20:05:23.336Z,100329.30
2019-06-20T20:07:52.337Z,100327.36
2019-06-20T20:10:29.850Z,100339.05
2019-06-20T20:12:58.860Z,100339.59
2019-06-20T20:15:27.913Z,100336.80
2019-06-20T20:17:56.976Z,100338.39
2019-06-20T20:20:25.932Z,100338.07
2019-06-20T20:22:54.732Z,100338.07
2019-06-20T20:25:23.932Z,100338.34
2019-06-20T20:27:52.797Z,100344.55
2019-06-20T20:30:21.856Z,100307.55
2019-06-20T20:32:50.891Z,100346.14
2019-06-20T20:35:34.482Z,100342.82
2019-06-20T20:37:51.050Z,100345.81
2019-06-20T20:40:20.693Z,100352.02
2019-06-20T20:42:49.638Z,100352.02
2019-06-20T20:45:20.525Z,100354.45
2019-06-20T20:47:49.490Z,100358.53
2019-06-20T20:50:19.444Z,100362.89
2019-06-20T20:52:48.368Z,100362.89
2019-06-20T20:55:18.115Z,100358.70
2019-06-20T20:57:47.064Z,100354.79
2019-06-20T21:00:24.245Z,100353.20
2019-06-20T21:02:53.655Z,100353.15
2019-06-20T21:05:22.759Z,100365.44
2019-06-20T21:07:51.923Z,100357.55
2019-06-20T21:10:22.156Z,100366.80
2019-06-20T21:12:50.905Z,100360.48
2019-06-20T21:15:20.117Z,100366.20
2019-06-20T21:17:49.172Z,100364.15
2019-06-20T21:20:18.432Z,100372.84
2019-06-20T21:22:47.406Z,100372.84
2019-06-20T21:25:16.765Z,100373.94
2019-06-20T21:27:45.700Z,100375.19
2019-06-20T21:30:16.316Z,100379.17
2019-06-20T21:32:45.329Z,100372.33
2019-06-20T21:35:15.301Z,100373.89
2019-06-20T21:37:44.254Z,100372.06
2019-06-20T21:40:13.575Z,100379.46
2019-06-20T21:42:42.549Z,100369.69
2019-06-20T21:45:11.971Z,100373.00
2019-06-20T21:47:41.044Z,100375.60
2019-06-20T21:50:10.398Z,100380.19
2019-06-20T21:52:39.326Z,100380.19
2019-06-20T21:55:08.567Z,100389.98
2019-06-20T21:57:37.465Z,100399.23
2019-06-20T22:00:11.769Z,100399.23
2019-06-20T22:02:41.025Z,100399.45
2019-06-20T22:05:10.262Z,100402.09
2019-06-20T22:07:39.237Z,100415.91
2019-06-20T22:10:08.440Z,100415.63
2019-06-20T22:12:37.374Z,100415.29
2019-06-20T22:15:07.238Z,100415.03
2019-06-20T22:17:36.108Z,100424.25
2019-06-20T22:20:06.391Z,100419.62
2019-06-20T22:22:35.348Z,100417.52
2019-06-20T22:25:04.955Z,100418.08
2019-06-20T22:27:34.280Z,100419.10
2019-06-20T22:30:04.060Z,100425.00
2019-06-20T22:32:33.210Z,100417.03
2019-06-20T22:35:02.024Z,100422.38
2019-06-20T22:37:30.896Z,100426.89
2019-06-20T22:39:59.908Z,100424.09
2019-06-20T22:42:28.852Z,100423.64
2019-06-20T22:44:57.731Z,100424.44
2019-06-20T22:47:26.590Z,100424.72
2019-06-20T22:49:55.476Z,100416.30
2019-06-20T22:52:24.430Z,100413.47
2019-06-20T22:54:53.270Z,100414.01
2019-06-20T22:57:22.050Z,100419.06
2019-06-20T22:59:50.972Z,100423.27
2019-06-20T23:02:19.870Z,100416.44
2019-06-20T23:04:48.884Z,100424.48
2019-06-20T23:07:17.746Z,100418.35
2019-06-20T23:09:52.453Z,100419.30
2019-06-20T23:12:21.487Z,100424.73
2019-06-20T23:14:50.370Z,100431.23
2019-06-20T23:17:19.178Z,100434.19
2019-06-20T23:19:48.175Z,100436.46
2019-06-20T23:22:17.120Z,100449.35
2019-06-20T23:24:46.088Z,100455.81
2019-06-20T23:27:15.207Z,100461.77
2019-06-20T23:29:44.073Z,100466.48
2019-06-20T23:32:13.036Z,100460.25
2019-06-20T23:34:41.867Z,100457.28
2019-06-20T23:37:13.206Z,100456.11
2019-06-20T23:42:18.123Z,100452.20
2019-06-20T23:44:47.056Z,100449.35
2019-06-20T23:47:16.045Z,100446.39
2019-06-20T23:49:45.079Z,100448.67
2019-06-20T23:52:18.170Z,100442.64
2019-06-20T23:54:47.125Z,100447.98
2019-06-20T23:57:16.047Z,100459.36
2019-06-20T23:59:44.950Z,100461.36
